createdAt,value
2023-03-19T00:04:47.612Z,6.53
2023-03-19T00:09:50.942Z,6.75
2023-03-19T00:14:54.038Z,6.07
2023-03-19T00:19:57.212Z,6.78
2023-03-19T00:25:00.317Z,5.65
2023-03-19T00:30:05.073Z,6.70
2023-03-19T00:35:09.171Z,7.55
2023-03-19T00:40:13.094Z,8.05
2023-03-19T00:45:16.973Z,6.00
2023-03-19T00:50:20.975Z,6.35
2023-03-19T00:55:25.906Z,5.53
2023-03-19T01:00:30.030Z,5.65
2023-03-19T01:05:35.457Z,5.80
2023-03-19T01:10:38.559Z,5.72
2023-03-19T01:15:44.020Z,6.20
2023-03-19T01:20:47.269Z,6.25
2023-03-19T01:25:51.927Z,6.22
2023-03-19T01:31:00.277Z,7.60
2023-03-19T01:36:06.383Z,6.85
2023-03-19T01:41:17.615Z,7.07
2023-03-19T01:46:35.307Z,6.55
2023-03-19T01:51:59.871Z,6.68
2023-03-19T01:57:16.643Z,6.88
2023-03-19T02:02:42.074Z,6.60
2023-03-19T02:07:57.103Z,7.03
2023-03-19T02:13:00.254Z,6.82
2023-03-19T02:18:04.454Z,6.25
2023-03-19T02:23:34.903Z,6.28
2023-03-19T02:28:49.113Z,6.03
2023-03-19T02:34:01.421Z,7.18
2023-03-19T02:39:08.931Z,7.32
2023-03-19T02:44:12.856Z,8.15
2023-03-19T02:49:16.712Z,8.15
2023-03-19T02:54:19.880Z,8.65
2023-03-19T02:59:24.680Z,8.68
2023-03-19T03:04:28.072Z,8.93
2023-03-19T03:09:31.659Z,9.13
2023-03-19T03:14:35.568Z,10.10
2023-03-19T03:19:38.736Z,9.63
2023-03-19T03:24:42.293Z,8.65
2023-03-19T03:29:46.582Z,8.82
2023-03-19T03:34:50.011Z,9.15
2023-03-19T03:39:54.097Z,8.45
2023-03-19T03:44:57.263Z,8.63
2023-03-19T03:50:01.116Z,8.48
2023-03-19T03:55:06.601Z,9.32
2023-03-19T04:00:11.600Z,9.88
2023-03-19T04:05:17.907Z,8.85
2023-03-19T04:10:21.392Z,8.60
2023-03-19T04:15:24.522Z,8.55
2023-03-19T04:20:31.907Z,8.93
2023-03-19T04:25:36.642Z,8.32
2023-03-19T04:30:39.943Z,8.18
2023-03-19T04:35:44.062Z,6.13
2023-03-19T04:40:48.999Z,5.82
2023-03-19T04:45:53.232Z,5.28
2023-03-19T04:50:58.677Z,4.80
2023-03-19T04:56:05.104Z,4.65
2023-03-19T05:01:09.601Z,5.03
2023-03-19T05:06:32.539Z,4.00
2023-03-19T05:11:37.405Z,3.63
2023-03-19T05:16:53.292Z,3.50
2023-03-19T05:21:57.665Z,3.50
2023-03-19T05:27:03.466Z,3.70
2023-03-19T05:32:36.260Z,2.92
2023-03-19T05:37:43.656Z,3.28
2023-03-19T05:42:47.848Z,3.47
2023-03-19T05:47:54.333Z,3.22
2023-03-19T05:52:58.910Z,3.47
2023-03-19T05:58:02.422Z,2.60
2023-03-19T06:03:06.740Z,3.25
2023-03-19T06:08:23.863Z,3.13
2023-03-19T06:13:37.199Z,4.07
2023-03-19T06:18:44.434Z,6.13
2023-03-19T06:23:51.725Z,4.43
2023-03-19T06:29:01.536Z,3.65
2023-03-19T06:34:05.502Z,2.67
2023-03-19T06:39:20.074Z,2.20
2023-03-19T06:44:25.520Z,2.58
2023-03-19T06:49:29.174Z,2.58
2023-03-19T06:54:32.769Z,2.30
2023-03-19T06:59:36.415Z,2.95
2023-03-19T07:04:39.671Z,3.60
2023-03-19T07:09:43.879Z,2.75
2023-03-19T07:14:47.217Z,3.00
2023-03-19T07:19:51.123Z,3.58
2023-03-19T07:24:54.746Z,2.65
2023-03-19T07:29:57.879Z,3.78
2023-03-19T07:35:01.980Z,3.05
2023-03-19T07:40:05.571Z,3.17
2023-03-19T07:45:09.742Z,3.20
2023-03-19T07:50:13.254Z,4.68
2023-03-19T07:55:16.897Z,5.47
2023-03-19T08:00:21.231Z,6.28
2023-03-19T08:05:25.581Z,5.25
2023-03-19T08:10:29.739Z,4.15
2023-03-19T08:15:33.152Z,3.67
2023-03-19T08:20:36.757Z,3.53
2023-03-19T08:25:40.577Z,4.05
2023-03-19T08:30:43.922Z,3.50
2023-03-19T08:35:47.707Z,2.92
2023-03-19T08:40:51.351Z,3.53
2023-03-19T08:45:54.556Z,4.13
2023-03-19T08:51:01.994Z,3.38
2023-03-19T08:56:08.095Z,3.22
2023-03-19T09:01:14.511Z,3.17
2023-03-19T09:06:17.855Z,3.45
2023-03-19T09:11:23.875Z,3.42
2023-03-19T09:16:27.798Z,3.25
2023-03-19T09:21:31.917Z,3.53
2023-03-19T09:26:36.525Z,3.45
2023-03-19T09:31:40.649Z,3.45
2023-03-19T09:36:44.288Z,3.70
2023-03-19T09:42:21.060Z,3.42
2023-03-19T09:47:36.744Z,3.28
2023-03-19T09:52:57.862Z,2.70
2023-03-19T09:58:02.430Z,2.97
2023-03-19T10:03:06.137Z,3.58
2023-03-19T10:08:51.877Z,2.53
2023-03-19T10:14:14.645Z,3.50
2023-03-19T10:19:32.973Z,2.80
2023-03-19T10:24:40.932Z,2.88
2023-03-19T10:29:44.670Z,2.88
2023-03-19T10:34:56.097Z,3.50
2023-03-19T10:40:01.776Z,3.70
2023-03-19T10:45:24.604Z,3.20
2023-03-19T10:50:38.404Z,2.97
2023-03-19T10:55:55.207Z,3.50
2023-03-19T11:01:13.388Z,3.80
2023-03-19T11:06:41.943Z,3.28
2023-03-19T11:11:57.121Z,3.92
2023-03-19T11:17:24.410Z,3.50
2023-03-19T11:22:32.518Z,3.67
2023-03-19T11:27:36.704Z,3.50
2023-03-19T11:33:01.953Z,4.00
2023-03-19T11:38:11.121Z,3.97
2023-03-19T11:43:33.561Z,3.30
2023-03-19T11:49:01.803Z,4.40
2023-03-19T11:54:40.190Z,4.00
2023-03-19T12:00:13.559Z,3.33
2023-03-19T12:05:36.983Z,3.97
2023-03-19T12:10:46.561Z,3.72
2023-03-19T12:16:10.980Z,4.95
2023-03-19T12:21:29.661Z,4.60
2023-03-19T12:26:44.621Z,4.78
2023-03-19T12:31:48.279Z,3.75
2023-03-19T12:36:55.595Z,4.43
2023-03-19T12:42:01.198Z,4.35
2023-03-19T12:47:26.990Z,5.00
2023-03-19T12:52:40.143Z,3.75
2023-03-19T12:57:54.929Z,4.70
2023-03-19T13:03:24.634Z,4.35
2023-03-19T13:08:42.768Z,4.38
2023-03-19T13:13:59.078Z,3.83
2023-03-19T13:19:19.427Z,4.72
2023-03-19T13:24:35.064Z,4.05
2023-03-19T13:30:01.698Z,4.57
2023-03-19T13:35:33.503Z,4.03
2023-03-19T13:40:44.812Z,4.25
2023-03-19T13:45:53.490Z,4.68
2023-03-19T13:51:31.175Z,5.40
2023-03-19T13:57:07.413Z,4.35
2023-03-19T14:07:23.479Z,4.50
2023-03-19T14:12:39.474Z,4.47
2023-03-19T14:17:49.566Z,4.72
2023-03-19T14:23:23.490Z,4.68
2023-03-19T14:28:49.833Z,4.95
2023-03-19T14:34:03.165Z,5.20
2023-03-19T14:39:21.958Z,5.22
2023-03-19T14:44:48.072Z,5.15
2023-03-19T14:55:10.834Z,4.65
2023-03-19T15:00:18.547Z,4.30
2023-03-19T15:05:25.204Z,4.38
2023-03-19T15:10:36.368Z,5.50
2023-03-19T15:16:01.116Z,5.43
2023-03-19T15:21:06.591Z,6.20
2023-03-19T15:26:12.146Z,5.47
2023-03-19T15:31:46.210Z,4.97
2023-03-19T15:36:41.703Z,6.23
2023-03-19T15:41:48.917Z,6.05
2023-03-19T15:46:52.862Z,5.85
2023-03-19T15:52:02.704Z,5.55
2023-03-19T15:57:08.357Z,6.05
2023-03-19T16:02:28.479Z,6.77
2023-03-19T16:07:31.797Z,5.85
2023-03-19T16:12:40.486Z,7.60
2023-03-19T16:17:44.203Z,6.93
2023-03-19T16:22:56.195Z,8.05
2023-03-19T16:28:00.542Z,7.40
2023-03-19T16:33:06.510Z,7.63
2023-03-19T16:38:23.681Z,6.97
2023-03-19T16:43:34.651Z,8.02
2023-03-19T16:48:38.906Z,7.88
2023-03-19T16:53:42.526Z,8.70
2023-03-19T16:58:46.649Z,8.35
2023-03-19T17:03:51.218Z,8.90
2023-03-19T17:08:54.813Z,10.55
2023-03-19T17:13:59.693Z,10.95
2023-03-19T17:19:06.879Z,11.98
2023-03-19T17:24:31.561Z,12.48
2023-03-19T17:29:35.094Z,15.70
2023-03-19T17:34:38.996Z,15.57
2023-03-19T17:39:43.706Z,16.25
2023-03-19T17:44:46.971Z,18.27
2023-03-19T17:49:50.749Z,19.80
2023-03-19T17:54:53.944Z,20.48
2023-03-19T17:59:57.098Z,22.42
2023-03-19T18:05:01.078Z,21.67
2023-03-19T18:10:04.505Z,19.77
2023-03-19T18:15:08.822Z,18.17
2023-03-19T18:20:19.039Z,19.48
2023-03-19T18:25:25.549Z,18.27
2023-03-19T18:30:32.172Z,17.33
2023-03-19T18:35:40.273Z,15.77
2023-03-19T18:40:44.411Z,15.27
2023-03-19T18:45:51.872Z,14.90
2023-03-19T18:50:57.103Z,15.75
2023-03-19T18:56:02.624Z,17.48
2023-03-19T19:01:06.682Z,16.75
2023-03-19T19:06:10.570Z,15.40
2023-03-19T19:11:16.162Z,11.98
2023-03-19T19:16:21.906Z,9.77
2023-03-19T19:21:25.958Z,8.70
2023-03-19T19:26:31.055Z,7.72
2023-03-19T19:31:36.598Z,7.25
2023-03-19T19:36:39.935Z,6.75
2023-03-19T19:41:45.087Z,7.03
2023-03-19T19:46:54.216Z,7.38
2023-03-19T19:51:57.640Z,6.95
2023-03-19T19:57:01.824Z,7.25
2023-03-19T20:02:23.544Z,7.22
2023-03-19T20:07:27.663Z,6.60
2023-03-19T20:12:33.776Z,7.20
2023-03-19T20:17:37.958Z,7.35
2023-03-19T20:22:41.517Z,7.13
2023-03-19T20:27:46.636Z,7.75
2023-03-19T20:32:51.360Z,13.73
2023-03-19T20:37:56.425Z,55.15
2023-03-19T20:43:01.251Z,49.90
2023-03-19T20:48:05.518Z,38.05
2023-03-19T20:53:08.663Z,10.65
2023-03-19T20:58:27.820Z,8.40
2023-03-19T21:03:33.016Z,6.13
2023-03-19T21:08:42.635Z,6.75
2023-03-19T21:13:48.393Z,6.57
2023-03-19T21:18:54.156Z,6.97
2023-03-19T21:24:11.600Z,7.15
2023-03-19T21:29:30.000Z,8.40
2023-03-19T21:34:33.971Z,8.27
2023-03-19T21:39:38.586Z,8.63
2023-03-19T21:44:43.740Z,7.80
2023-03-19T21:49:50.278Z,9.45
2023-03-19T21:54:54.115Z,9.20
2023-03-19T21:59:57.867Z,11.23
2023-03-19T22:05:02.406Z,10.63
2023-03-19T22:10:06.449Z,9.45
2023-03-19T22:15:21.493Z,9.25
2023-03-19T22:20:26.680Z,10.13
2023-03-19T22:25:35.842Z,9.70
2023-03-19T22:30:40.125Z,9.65
2023-03-19T22:35:45.143Z,9.60
2023-03-19T22:40:51.631Z,9.85
2023-03-19T22:46:02.759Z,10.17
2023-03-19T22:51:07.470Z,10.00
2023-03-19T22:56:12.210Z,10.45
2023-03-19T23:01:21.630Z,12.88
2023-03-19T23:06:30.624Z,18.73
2023-03-19T23:11:34.564Z,19.45
2023-03-19T23:16:42.487Z,20.10
2023-03-19T23:21:46.093Z,15.70
2023-03-19T23:26:51.581Z,13.98
2023-03-19T23:31:54.729Z,13.43
2023-03-19T23:36:58.284Z,14.10
2023-03-19T23:42:01.548Z,10.63
2023-03-19T23:47:05.317Z,9.25
2023-03-19T23:52:14.527Z,8.13
2023-03-19T23:57:18.608Z,9.18
